createdAt,value
2019-03-10T00:00:35.205Z,4.97
2019-03-10T00:03:04.994Z,5.20
2019-03-10T00:05:34.347Z,5.92
2019-03-10T00:08:03.684Z,5.65
2019-03-10T00:10:33.048Z,5.58
2019-03-10T00:13:02.376Z,5.55
2019-03-10T00:15:31.717Z,6.03
2019-03-10T00:18:01.039Z,5.80
2019-03-10T00:20:30.670Z,6.12
2019-03-10T00:23:00.289Z,6.05
2019-03-10T00:25:29.609Z,4.87
2019-03-10T00:27:58.940Z,5.03
2019-03-10T00:30:28.605Z,5.87
2019-03-10T00:32:58.167Z,5.58
2019-03-10T00:35:27.493Z,6.35
2019-03-10T00:37:57.064Z,5.55
2019-03-10T00:40:46.987Z,5.67
2019-03-10T00:43:36.133Z,5.42
2019-03-10T00:46:26.420Z,5.83
2019-03-10T00:49:15.587Z,5.42
2019-03-10T00:52:08.590Z,5.87
2019-03-10T00:54:38.187Z,7.65
2019-03-10T00:57:07.594Z,5.87
2019-03-10T00:59:36.918Z,5.67
2019-03-10T01:02:06.242Z,5.08
2019-03-10T01:04:35.574Z,6.03
2019-03-10T01:07:04.988Z,6.87
2019-03-10T01:09:34.317Z,5.70
2019-03-10T01:12:03.780Z,6.05
2019-03-10T01:14:33.947Z,6.17
2019-03-10T01:17:03.814Z,6.25
2019-03-10T01:19:35.089Z,5.65
2019-03-10T01:22:04.557Z,7.35
2019-03-10T01:24:33.895Z,5.95
2019-03-10T01:27:03.587Z,5.70
2019-03-10T01:29:33.108Z,6.08
2019-03-10T01:32:20.156Z,7.40
2019-03-10T01:34:58.291Z,6.65
2019-03-10T01:37:27.665Z,7.30
2019-03-10T01:39:57.251Z,6.08
2019-03-10T01:42:26.741Z,6.37
2019-03-10T01:44:56.381Z,6.75
2019-03-10T01:47:25.706Z,7.42
2019-03-10T01:49:55.038Z,6.42
2019-03-10T01:52:24.360Z,6.67
2019-03-10T01:54:53.699Z,7.80
2019-03-10T01:57:23.030Z,7.25
2019-03-10T01:59:52.385Z,7.97
2019-03-10T02:02:25.719Z,5.80
2019-03-10T02:04:52.779Z,6.60
2019-03-10T02:07:22.107Z,8.15
2019-03-10T02:09:51.448Z,7.33
2019-03-10T02:12:20.826Z,6.95
2019-03-10T02:14:50.145Z,7.22
2019-03-10T02:17:20.439Z,5.83
2019-03-10T02:19:50.179Z,7.08
2019-03-10T02:22:19.497Z,6.87
2019-03-10T02:24:48.843Z,7.53
2019-03-10T02:27:18.174Z,7.42
2019-03-10T02:29:47.505Z,6.85
2019-03-10T02:32:16.839Z,7.03
2019-03-10T02:34:46.232Z,6.85
2019-03-10T02:37:15.631Z,6.85
2019-03-10T02:39:44.952Z,7.58
2019-03-10T02:42:14.284Z,6.58
2019-03-10T02:44:43.631Z,7.65
2019-03-10T02:47:13.186Z,6.47
2019-03-10T02:49:42.822Z,7.20
2019-03-10T02:52:12.154Z,7.08
2019-03-10T02:54:41.484Z,7.00
2019-03-10T02:57:11.041Z,5.87
2019-03-10T02:59:40.366Z,7.33
2019-03-10T03:02:09.943Z,7.03
2019-03-10T03:04:39.558Z,6.33
2019-03-10T03:07:08.864Z,6.87
2019-03-10T03:09:38.185Z,7.22
2019-03-10T03:12:07.517Z,6.40
2019-03-10T03:14:36.850Z,6.25
2019-03-10T03:17:06.179Z,6.92
2019-03-10T03:19:35.524Z,7.00
2019-03-10T03:22:04.862Z,5.62
2019-03-10T03:24:34.263Z,6.75
2019-03-10T03:27:03.880Z,6.45
2019-03-10T03:29:33.866Z,6.92
2019-03-10T03:32:03.219Z,7.12
2019-03-10T03:34:32.529Z,7.35
2019-03-10T03:37:01.860Z,7.15
2019-03-10T03:39:32.727Z,5.92
2019-03-10T03:42:02.080Z,6.28
2019-03-10T03:44:31.380Z,5.75
2019-03-10T03:47:00.717Z,6.22
2019-03-10T03:49:30.052Z,5.00
2019-03-10T03:51:59.593Z,5.25
2019-03-10T03:54:28.912Z,5.70
2019-03-10T03:56:58.247Z,5.20
2019-03-10T03:59:28.145Z,4.42
2019-03-10T04:01:59.118Z,5.45
2019-03-10T04:04:28.538Z,5.17
2019-03-10T04:06:57.861Z,5.62
2019-03-10T04:09:28.252Z,5.10
2019-03-10T04:11:57.592Z,4.85
2019-03-10T04:14:26.913Z,5.62
2019-03-10T04:16:56.254Z,5.70
2019-03-10T04:19:25.603Z,6.37
2019-03-10T04:21:54.912Z,4.65
2019-03-10T04:24:24.289Z,5.22
2019-03-10T04:26:53.595Z,4.85
2019-03-10T04:29:23.261Z,3.80
2019-03-10T04:31:52.593Z,4.70
2019-03-10T04:34:21.911Z,4.97
2019-03-10T04:36:51.242Z,4.62
2019-03-10T04:39:20.572Z,4.40
2019-03-10T04:41:49.968Z,5.10
2019-03-10T04:44:19.227Z,4.12
2019-03-10T04:46:48.548Z,4.15
2019-03-10T04:49:17.867Z,4.20
2019-03-10T04:51:47.194Z,3.80
2019-03-10T04:54:18.171Z,4.10
2019-03-10T04:56:49.142Z,4.37
2019-03-10T04:59:18.475Z,5.03
